Time;durP1;ratioP1;P1;durP2;ratioP2;P2;SDS_P1;SDS_P2;PMS_P1;PMS_P2;Temp;Humidity;BMP_temperature;BMP_pressure;BME280_temperature;BME280_humidity;BME280_pressure;Samples;Min_cycle;Max_cycle;Signal;HPM_P1;HPM_P2
2021/01/29 00:00:57;;;;;;;10.82;5.32;;;;;;;21.08;21.52;96486.06;5041875;28;20562;-82
2021/01/29 00:03:23;;;;;;;13.70;7.10;;;;;;;21.59;20.87;96492.97;5042021;28;20036;-82
2021/01/29 00:05:54;;;;;;;14.27;6.88;;;;;;;21.42;21.07;96490.84;5041703;28;20033;-82
2021/01/29 00:08:21;;;;;;;12.18;6.22;;;;;;;20.40;22.08;96495.91;5038354;28;20107;-82
2021/01/29 00:10:48;;;;;;;12.90;6.78;;;;;;;20.96;21.73;96496.00;5039921;28;20132;-82
2021/01/29 00:13:15;;;;;;;10.70;5.80;;;;;;;21.19;21.37;96506.78;5040731;28;20029;-82
2021/01/29 00:15:42;;;;;;;10.63;5.53;;;;;;;21.34;21.22;96510.66;5041699;28;20124;-82
2021/01/29 00:18:09;;;;;;;11.32;5.97;;;;;;;20.72;21.80;96521.97;5041767;28;20104;-82
2021/01/29 00:20:35;;;;;;;11.25;7.13;;;;;;;21.11;21.42;96515.88;5040494;28;20045;-82
2021/01/29 00:23:02;;;;;;;13.27;6.55;;;;;;;20.43;22.08;96524.91;5043041;28;20047;-82
2021/01/29 00:25:35;;;;;;;13.13;6.07;;;;;;;20.13;22.53;96515.06;5043053;28;20032;-82
2021/01/29 00:28:02;;;;;;;15.25;8.55;;;;;;;19.60;23.10;96516.66;5040317;28;20067;-82
2021/01/29 00:30:29;;;;;;;15.75;7.45;;;;;;;20.47;22.46;96517.19;5040183;28;20146;-82
2021/01/29 00:32:55;;;;;;;16.52;8.52;;;;;;;18.88;24.09;96518.25;5038054;28;20038;-82
2021/01/29 00:35:24;;;;;;;18.25;9.20;;;;;;;19.70;23.62;96510.00;5042597;28;20024;-81
2021/01/29 00:37:50;;;;;;;14.93;7.90;;;;;;;19.76;23.10;96497.09;5041187;28;20040;-82
2021/01/29 00:40:17;;;;;;;17.85;8.13;;;;;;;20.37;22.47;96496.81;5038776;28;20225;-82
2021/01/29 00:42:43;;;;;;;19.75;9.65;;;;;;;20.58;22.18;96484.19;5037794;28;20083;-81
2021/01/29 00:45:11;;;;;;;19.00;10.02;;;;;;;21.57;20.94;96484.28;5042055;28;20485;-82
2021/01/29 00:47:38;;;;;;;22.67;11.40;;;;;;;21.93;20.60;96472.56;5037889;28;20038;-82
2021/01/29 00:50:06;;;;;;;19.35;9.82;;;;;;;22.31;19.98;96470.25;5041682;28;20116;-82
2021/01/29 00:52:32;;;;;;;16.40;8.02;;;;;;;22.22;20.08;96470.22;5039265;28;20048;-82
2021/01/29 00:54:58;;;;;;;15.73;8.75;;;;;;;22.40;19.96;96484.28;5039804;28;20415;-82
2021/01/29 00:57:24;;;;;;;19.50;7.95;;;;;;;22.25;20.17;96480.47;5041553;28;20037;-82
2021/01/29 00:59:50;;;;;;;17.77;8.88;;;;;;;22.57;19.79;96474.34;5039082;28;20486;-82
2021/01/29 06:16:31;;;;;;;4.40;2.50;;;;;;;14.02;24.15;96671.13;5093560;27;20892;-80
2021/01/29 06:19:19;;;;;;;4.75;2.53;;;;;;;14.98;22.91;96661.03;5060418;28;20051;-80
2021/01/29 06:22:28;;;;;;;5.18;2.70;;;;;;;16.09;21.53;96669.78;5060633;28;20033;-82
2021/01/29 06:25:18;;;;;;;5.15;2.58;;;;;;;16.25;21.43;96659.69;5053389;28;20515;-79
2021/01/29 06:27:47;;;;;;;3.88;2.90;;;;;;;15.09;22.67;96669.25;5061534;28;20036;-81
2021/01/29 06:30:25;;;;;;;5.03;3.03;;;;;;;15.59;22.01;96670.34;5066409;28;20447;-81
2021/01/29 06:32:57;;;;;;;4.60;3.05;;;;;;;15.35;22.30;96671.38;5078017;28;20040;-83
2021/01/29 06:35:58;;;;;;;8.25;4.07;;;;;;;15.76;21.73;96674.13;5069784;28;20028;-82
2021/01/29 06:38:52;;;;;;;4.00;2.50;;;;;;;16.67;20.78;96669.41;5050197;28;20430;-82
2021/01/29 06:41:40;;;;;;;4.20;2.70;;;;;;;17.05;20.33;96664.47;5050333;28;20033;-82
2021/01/29 06:44:38;;;;;;;4.78;2.67;;;;;;;16.86;20.86;96665.94;5050147;28;20033;-82
2021/01/29 06:47:22;;;;;;;5.57;3.35;;;;;;;16.73;20.93;96675.28;5065727;28;20157;-81
2021/01/29 06:50:00;;;;;;;5.65;3.08;;;;;;;17.72;19.95;96675.19;5070164;28;20025;-82
2021/01/29 06:53:03;;;;;;;4.75;2.70;;;;;;;17.97;19.79;96674.69;5050285;28;20033;-82
2021/01/29 06:55:54;;;;;;;4.38;2.80;;;;;;;19.35;18.49;96672.38;5049964;28;20123;-81
2021/01/29 06:58:44;;;;;;;7.82;3.65;;;;;;;19.49;18.01;96660.13;5055752;28;20037;-81
2021/01/29 07:01:13;;;;;;;8.57;4.70;;;;;;;18.60;18.87;96669.81;5068377;28;20476;-82
2021/01/29 07:03:52;;;;;;;6.75;3.50;;;;;;;19.38;18.19;96668.75;5069052;28;20549;-82
2021/01/29 07:06:44;;;;;;;6.35;4.30;;;;;;;19.56;17.91;96668.28;5067846;28;20036;-81
2021/01/29 07:09:44;;;;;;;6.32;3.63;;;;;;;18.96;18.51;96659.44;5068256;28;20131;-81
2021/01/29 07:12:32;;;;;;;5.82;3.00;;;;;;;19.67;17.47;96650.09;5067671;28;20038;-81
2021/01/29 07:15:40;;;;;;;12.30;4.20;;;;;;;18.88;18.33;96648.94;5069403;28;20087;-81
2021/01/29 07:18:31;;;;;;;8.85;4.57;;;;;;;17.95;19.47;96652.13;5069995;28;20037;-81
2021/01/29 07:21:10;;;;;;;7.53;3.95;;;;;;;18.48;18.96;96646.25;5068114;28;20036;-81
2021/01/29 07:24:06;;;;;;;9.35;3.88;;;;;;;18.97;18.18;96646.31;5069541;28;20384;-81
2021/01/29 07:27:08;;;;;;;8.80;4.32;;;;;;;19.52;18.13;96643.34;5043107;28;20047;-81
2021/01/29 07:29:49;;;;;;;10.63;5.15;;;;;;;19.54;17.83;96642.91;5052093;28;20033;-81
2021/01/29 07:32:34;;;;;;;9.82;5.32;;;;;;;19.01;18.48;96641.44;5056030;28;20029;-81
2021/01/29 07:35:23;;;;;;;7.00;4.35;;;;;;;19.28;17.93;96628.81;5059414;28;20049;-81
2021/01/29 07:38:42;;;;;;;7.03;4.13;;;;;;;17.75;19.32;96632.69;5067223;28;20392;-81
2021/01/29 07:41:25;;;;;;;6.80;3.92;;;;;;;18.08;19.16;96632.84;5036762;28;20488;-81
2021/01/29 07:44:22;;;;;;;6.88;3.97;;;;;;;17.45;19.69;96627.31;5033732;28;20064;-80
2021/01/29 07:47:13;;;;;;;6.60;4.28;;;;;;;17.82;19.36;96629.00;5041456;28;20064;-80
2021/01/29 07:50:13;;;;;;;9.65;4.07;;;;;;;18.73;18.59;96626.22;5055634;28;20036;-80
2021/01/29 07:52:43;;;;;;;7.97;4.15;;;;;;;17.44;19.83;96606.31;5026942;28;20395;-80
2021/01/29 07:55:18;;;;;;;8.88;3.80;;;;;;;17.97;19.26;96607.28;5069555;28;20501;-80
2021/01/29 07:58:20;;;;;;;7.55;4.20;;;;;;;18.65;18.61;96583.13;5071162;28;20036;-81
2021/01/29 08:01:07;;;;;;;7.13;3.40;;;;;;;18.24;18.80;96591.22;5010312;28;20056;-81
2021/01/29 08:03:53;;;;;;;7.85;3.90;;;;;;;19.17;18.23;96583.03;5055622;28;20037;-81
2021/01/29 08:06:23;;;;;;;4.53;3.00;;;;;;;18.58;18.58;96586.88;5055751;28;20068;-81
2021/01/29 08:08:56;;;;;;;7.57;3.95;;;;;;;18.03;19.35;96592.47;5055162;28;20029;-81
2021/01/29 08:11:24;;;;;;;6.70;4.13;;;;;;;17.97;18.99;96585.06;5054780;28;20553;-80
2021/01/29 08:14:09;;;;;;;5.80;2.97;;;;;;;16.96;19.96;96589.38;5060446;28;20024;-81
2021/01/29 08:16:56;;;;;;;5.70;3.92;;;;;;;15.76;22.00;96596.66;5057436;28;20395;-81
2021/01/29 08:19:53;;;;;;;5.80;3.78;;;;;;;16.63;21.10;96582.78;5051446;28;20037;-81
2021/01/29 08:22:39;;;;;;;5.70;3.33;;;;;;;18.14;19.10;96583.88;5057932;28;20108;-81
2021/01/29 08:25:51;;;;;;;8.50;4.60;;;;;;;18.23;18.95;96576.53;5066630;28;20029;-81
2021/01/29 08:28:39;;;;;;;6.15;3.60;;;;;;;17.48;19.86;96575.75;5064962;28;20036;-80
2021/01/29 08:31:20;;;;;;;7.97;4.40;;;;;;;18.11;19.27;96573.66;5054496;28;20399;-81
2021/01/29 08:34:07;;;;;;;6.45;3.85;;;;;;;19.28;18.18;96556.47;5058780;28;20071;-81
2021/01/29 08:37:10;;;;;;;7.53;4.28;;;;;;;19.43;17.62;96556.91;5060962;28;20063;-81
2021/01/29 08:39:58;;;;;;;6.75;4.10;;;;;;;19.43;18.03;96550.56;5033589;28;20473;-80
2021/01/29 08:42:54;;;;;;;6.00;3.63;;;;;;;20.36;17.11;96544.63;5058459;28;20024;-80
2021/01/29 08:45:54;;;;;;;7.95;3.33;;;;;;;21.26;16.10;96542.06;5055167;28;20039;-80
2021/01/29 08:48:32;;;;;;;6.97;3.88;;;;;;;21.62;16.09;96539.56;5054760;28;20040;-80
2021/01/29 08:51:30;;;;;;;9.90;4.18;;;;;;;21.18;16.17;96544.31;5058336;28;20033;-80
2021/01/29 08:54:08;;;;;;;6.30;3.88;;;;;;;19.96;17.25;96544.22;5051445;28;20044;-80
2021/01/29 08:57:01;;;;;;;6.97;3.53;;;;;;;19.41;17.87;96548.22;5074550;28;20047;-81
2021/01/29 08:59:34;;;;;;;9.45;4.97;;;;;;;20.16;17.35;96553.19;5071725;28;20036;-81
2021/01/29 09:02:19;;;;;;;8.40;4.57;;;;;;;19.24;18.24;96558.56;5060381;28;20110;-80
2021/01/29 09:04:48;;;;;;;7.95;4.97;;;;;;;21.16;16.53;96555.16;5054584;28;20438;-80
2021/01/29 09:07:29;;;;;;;7.55;4.78;;;;;;;19.79;17.56;96570.63;5054087;28;20434;-80
2021/01/29 09:10:14;;;;;;;8.80;4.63;;;;;;;19.42;18.15;96546.22;5053394;28;20037;-81
2021/01/29 09:12:43;;;;;;;10.55;5.03;;;;;;;18.94;18.26;96547.06;5053350;28;20029;-80
2021/01/29 09:15:26;;;;;;;7.68;4.88;;;;;;;20.17;17.26;96549.16;5053241;28;20045;-81
2021/01/29 09:17:58;;;;;;;10.63;6.22;;;;;;;20.34;16.93;96570.19;5047064;28;20041;-81
2021/01/29 09:20:31;;;;;;;8.60;5.68;;;;;;;18.92;17.98;96569.75;5052523;28;20024;-81
2021/01/29 09:23:16;;;;;;;9.40;5.13;;;;;;;19.32;17.46;96570.31;5052252;28;20053;-80
2021/01/29 09:25:54;;;;;;;9.88;5.65;;;;;;;18.05;18.82;96576.16;5054185;28;20036;-80
2021/01/29 09:28:27;;;;;;;12.07;6.28;;;;;;;18.79;18.22;96574.44;5053375;28;20537;-81
2021/01/29 09:31:00;;;;;;;9.80;5.50;;;;;;;19.60;17.71;96577.13;5066846;28;20024;-80
2021/01/29 09:33:41;;;;;;;15.82;7.40;;;;;;;20.99;16.62;96572.47;5065576;28;20127;-80
2021/01/29 09:36:13;;;;;;;11.80;5.93;;;;;;;20.83;16.41;96572.59;5057569;28;20060;-81
2021/01/29 09:38:53;;;;;;;13.57;7.53;;;;;;;19.52;17.29;96570.97;5052413;28;20037;-80
2021/01/29 09:41:37;;;;;;;9.93;6.00;;;;;;;19.74;17.56;96569.13;5053492;28;20051;-80
2021/01/29 09:44:23;;;;;;;10.88;6.50;;;;;;;21.05;16.48;96559.53;5053484;28;20024;-81
2021/01/29 09:46:54;;;;;;;15.63;8.77;;;;;;;19.90;17.10;96563.53;5053864;28;20107;-81
2021/01/29 09:49:35;;;;;;;15.27;8.23;;;;;;;19.71;17.12;96547.75;5060518;28;20026;-80
2021/01/29 09:52:06;;;;;;;;;;;;;;;19.57;17.18;96542.59;5053307;28;20098;-80
2021/01/29 09:54:50;;;;;;;19.67;8.80;;;;;;;20.87;16.47;96523.81;5087639;28;19925;-80
2021/01/29 09:57:24;;;;;;;14.02;6.95;;;;;;;21.66;15.82;96523.44;5086034;28;20025;-80
2021/01/29 10:00:08;;;;;;;12.82;6.68;;;;;;;21.78;15.38;96522.59;5072809;28;20036;-81
2021/01/29 10:02:52;;;;;;;15.27;7.40;;;;;;;22.03;15.34;96505.69;5063356;28;20103;-79
2021/01/29 10:05:25;;;;;;;11.63;5.65;;;;;;;21.82;15.23;96506.47;5073451;28;20035;-81
2021/01/29 10:08:10;;;;;;;8.77;4.85;;;;;;;22.39;13.93;96502.28;5072762;28;20127;-81
2021/01/29 10:10:48;;;;;;;8.20;4.18;;;;;;;22.74;14.04;96493.69;5073334;28;20036;-81
2021/01/29 10:13:14;;;;;;;9.35;4.80;;;;;;;22.93;14.20;96492.50;5085428;28;20046;-82
2021/01/29 10:15:42;;;;;;;11.48;5.63;;;;;;;23.03;14.25;96497.66;5076778;28;20052;-81
2021/01/29 10:18:23;;;;;;;10.32;5.72;;;;;;;22.27;14.02;96491.97;5073165;28;20024;-81
2021/01/29 10:21:03;;;;;;;8.50;4.20;;;;;;;21.74;14.30;96501.63;5090623;28;20064;-81
2021/01/29 10:23:46;;;;;;;10.35;4.85;;;;;;;21.49;14.77;96496.97;5093419;28;20518;-81
2021/01/29 10:26:19;;;;;;;9.45;4.35;;;;;;;22.01;13.71;96496.19;5084903;28;20029;-81
2021/01/29 10:28:54;;;;;;;7.75;4.22;;;;;;;22.77;14.12;96492.78;5056902;28;20051;-82
2021/01/29 10:31:23;;;;;;;10.75;5.90;;;;;;;22.30;13.04;96499.44;5087225;28;20055;-81
2021/01/29 10:34:11;;;;;;;8.38;4.43;;;;;;;21.70;13.92;96492.59;5070675;28;20040;-82
2021/01/29 10:36:39;;;;;;;9.05;3.97;;;;;;;22.43;13.16;96494.53;5077804;28;20036;-82
2021/01/29 10:39:20;;;;;;;7.55;3.85;;;;;;;21.93;13.62;96498.50;5070834;28;20487;-82
2021/01/29 10:42:03;;;;;;;6.88;3.25;;;;;;;22.20;12.93;96488.69;5076439;28;20455;-82
2021/01/29 10:44:34;;;;;;;7.18;3.45;;;;;;;22.24;12.89;96483.75;5071166;28;20059;-82
2021/01/29 10:47:08;;;;;;;6.90;3.90;;;;;;;21.52;13.19;96481.31;5082693;28;20064;-82
2021/01/29 10:49:47;;;;;;;6.82;4.13;;;;;;;20.79;13.75;96479.91;5074572;28;20456;-82
2021/01/29 10:52:35;;;;;;;8.35;3.83;;;;;;;22.19;12.97;96471.16;5073761;28;20040;-82
2021/01/29 10:55:04;;;;;;;7.40;4.05;;;;;;;22.48;13.12;96457.56;5070279;28;20079;-83
2021/01/29 10:58:00;;;;;;;5.82;3.72;;;;;;;23.14;12.60;96464.38;5074954;28;20033;-83
2021/01/29 11:00:31;;;;;;;13.38;5.88;;;;;;;23.74;12.77;96447.66;5070856;28;20098;-83
2021/01/29 11:03:07;;;;;;;10.65;5.30;;;;;;;24.17;12.36;96443.66;5068066;28;20028;-83
2021/01/29 11:05:39;;;;;;;7.15;3.95;;;;;;;24.54;12.49;96449.88;5072160;28;20483;-83
2021/01/29 11:08:19;;;;;;;9.85;5.10;;;;;;;24.83;12.27;96441.63;5076374;28;20109;-83
2021/01/29 11:10:51;;;;;;;8.63;4.13;;;;;;;25.01;12.30;96427.44;5075587;28;20041;-83
2021/01/29 11:13:45;;;;;;;7.97;3.72;;;;;;;25.48;12.23;96426.59;5066152;28;20101;-83
2021/01/29 11:16:15;;;;;;;9.63;4.35;;;;;;;25.33;12.25;96420.13;5077721;28;20060;-83
2021/01/29 11:18:42;;;;;;;6.60;3.85;;;;;;;24.77;11.77;96406.25;5070693;28;20025;-83
2021/01/29 11:21:28;;;;;;;8.90;3.25;;;;;;;25.08;11.99;96415.06;5076073;28;20117;-83
2021/01/29 11:24:09;;;;;;;12.32;4.53;;;;;;;25.55;12.28;96400.13;5076186;28;20035;-83
2021/01/29 11:27:09;;;;;;;7.90;4.10;;;;;;;25.93;11.50;96400.00;5073516;28;20037;-83
2021/01/29 11:29:44;;;;;;;6.05;3.60;;;;;;;26.08;11.72;96398.72;5068371;28;20119;-83
2021/01/29 11:32:32;;;;;;;8.35;4.35;;;;;;;25.84;11.73;96388.84;5061376;28;20545;-82
2021/01/29 11:35:24;;;;;;;6.95;3.83;;;;;;;26.26;11.64;96388.50;5083383;28;20091;-82
2021/01/29 11:37:56;;;;;;;5.05;3.13;;;;;;;26.45;11.47;96387.00;5073569;28;20036;-82
2021/01/29 11:40:32;;;;;;;6.05;3.17;;;;;;;26.42;11.81;96382.38;5072885;28;20403;-82
2021/01/29 11:43:05;;;;;;;8.32;3.85;;;;;;;26.80;12.28;96381.34;5056180;28;20423;-82
2021/01/29 11:45:43;;;;;;;9.10;3.67;;;;;;;26.93;11.46;96370.50;5063784;28;20044;-83
2021/01/29 11:48:31;;;;;;;6.60;3.58;;;;;;;26.28;11.53;96367.06;5057866;28;20431;-81
2021/01/29 11:51:18;;;;;;;6.80;3.35;;;;;;;26.18;11.60;96360.03;5092841;28;20047;-82
2021/01/29 11:53:51;;;;;;;6.25;3.33;;;;;;;26.71;12.58;96360.50;5089753;28;20045;-82
2021/01/29 11:56:34;;;;;;;8.40;3.83;;;;;;;26.30;11.21;96350.47;5076855;28;20034;-81
2021/01/29 11:59:22;;;;;;;6.03;3.10;;;;;;;26.32;11.81;96345.13;5075647;28;20044;-82
2021/01/29 12:01:57;;;;;;;7.30;3.92;;;;;;;26.19;11.86;96347.50;5089973;28;20036;-81
2021/01/29 12:04:25;;;;;;;9.82;5.75;;;;;;;24.60;12.61;96344.91;5095743;28;20035;-81
2021/01/29 12:07:30;;;;;;;7.80;4.60;;;;;;;24.43;12.26;96341.00;5095517;28;20028;-82
2021/01/29 12:10:18;;;;;;;5.15;3.40;;;;;;;24.93;12.57;96330.00;5085237;28;20127;-81
2021/01/29 12:12:55;;;;;;;11.05;5.72;;;;;;;24.55;12.72;96327.97;5082457;28;20031;-82
2021/01/29 12:15:26;;;;;;;6.45;3.58;;;;;;;25.52;12.81;96328.03;5079060;28;20056;-81
2021/01/29 12:17:57;;;;;;;;;;;;;;;26.03;11.33;96317.84;5075547;28;20105;-82
2021/01/29 12:20:26;;;;;;;7.63;3.75;;;;;;;26.46;11.44;96323.81;5074062;28;19917;-82
2021/01/29 12:23:18;;;;;;;5.50;2.97;;;;;;;26.67;11.34;96328.97;5074957;28;20081;-82
2021/01/29 12:26:12;;;;;;;7.50;4.38;;;;;;;26.02;11.02;96318.34;5073531;28;20365;-82
2021/01/29 12:28:57;;;;;;;6.07;3.60;;;;;;;25.82;11.94;96312.66;5074626;28;20064;-82
2021/01/29 12:31:29;;;;;;;6.80;3.70;;;;;;;25.97;11.52;96304.97;5073904;28;20040;-82
2021/01/29 12:34:32;;;;;;;6.70;3.22;;;;;;;25.77;11.61;96305.69;5089109;28;20032;-82
2021/01/29 12:37:01;;;;;;;6.07;2.95;;;;;;;26.31;11.79;96301.38;5085588;28;20028;-81
2021/01/29 12:39:32;;;;;;;6.80;3.25;;;;;;;26.34;11.82;96302.44;5074797;28;20020;-82
2021/01/29 12:42:21;;;;;;;5.03;2.85;;;;;;;26.30;11.87;96302.63;5074253;28;20032;-81
2021/01/29 12:45:04;;;;;;;7.43;3.72;;;;;;;26.01;11.53;96292.25;5054297;28;20033;-82
2021/01/29 12:47:54;;;;;;;7.10;3.67;;;;;;;25.22;12.08;96287.91;5068675;28;20044;-81
2021/01/29 12:50:43;;;;;;;6.38;3.63;;;;;;;24.82;12.52;96284.88;5068263;28;20036;-81
2021/01/29 12:53:33;;;;;;;13.45;6.55;;;;;;;23.01;13.15;96289.44;5064240;28;20024;-81
2021/01/29 12:56:33;;;;;;;5.95;3.58;;;;;;;22.47;13.90;96282.63;5035325;28;20045;-81
2021/01/29 12:59:01;;;;;;;9.30;4.32;;;;;;;22.87;14.32;96284.47;5061552;28;20025;-81
2021/01/29 13:01:37;;;;;;;10.60;6.35;;;;;;;21.43;14.25;96278.19;5069573;28;20373;-81
2021/01/29 13:04:41;;;;;;;11.05;6.35;;;;;;;20.64;15.01;96276.81;5067550;28;20112;-81
2021/01/29 13:07:16;;;;;;;12.27;6.32;;;;;;;20.50;15.97;96268.19;5072636;28;20111;-81
2021/01/29 13:10:09;;;;;;;9.93;4.75;;;;;;;21.08;15.18;96271.22;5056278;28;20028;-81
2021/01/29 13:12:53;;;;;;;12.88;6.85;;;;;;;19.96;15.96;96265.69;5062205;28;20041;-81
2021/01/29 13:15:44;;;;;;;9.80;5.35;;;;;;;20.40;15.99;96266.56;5061223;28;20566;-81
2021/01/29 13:18:25;;;;;;;14.52;6.32;;;;;;;20.19;15.98;96261.69;5069363;28;20029;-80
2021/01/29 13:20:54;;;;;;;;;;;;;;;18.89;16.08;96258.41;5062510;28;20517;-80
2021/01/29 13:23:32;;;;;;;14.82;6.70;;;;;;;18.25;17.71;96260.22;5065603;28;19923;-80
2021/01/29 13:26:06;;;;;;;10.65;6.32;;;;;;;19.43;17.09;96258.34;5065944;28;20051;-80
2021/01/29 13:28:36;;;;;;;15.43;8.07;;;;;;;16.76;19.60;96259.53;5066681;28;20029;-80
2021/01/29 13:31:20;;;;;;;15.00;7.38;;;;;;;16.84;19.11;96252.63;5065956;28;20024;-80
2021/01/29 13:33:57;;;;;;;14.68;8.15;;;;;;;16.63;19.69;96263.38;5062768;28;20154;-81
2021/01/29 13:36:33;;;;;;;16.02;8.60;;;;;;;17.44;18.69;96259.53;5062893;28;20040;-81
2021/01/29 13:39:08;;;;;;;17.23;8.48;;;;;;;16.84;19.07;96254.59;5062892;28;20064;-81
2021/01/29 13:41:50;;;;;;;14.70;7.93;;;;;;;16.96;18.95;96256.72;5062578;28;21305;-81
2021/01/29 13:44:46;;;;;;;15.45;8.55;;;;;;;17.03;18.57;96251.81;5063729;28;20028;-82
2021/01/29 13:47:28;;;;;;;12.35;7.13;;;;;;;17.48;18.59;96253.91;5062332;28;20391;-81
2021/01/29 13:49:55;;;;;;;15.68;8.65;;;;;;;17.69;18.85;96250.63;5063380;28;20067;-82
2021/01/29 13:52:23;;;;;;;18.05;9.35;;;;;;;16.57;19.83;96252.00;5066273;28;20328;-81
2021/01/29 13:54:50;;;;;;;16.33;9.25;;;;;;;17.49;18.86;96250.69;5060389;28;20041;-81
2021/01/29 13:57:38;;;;;;;18.00;9.10;;;;;;;17.65;18.42;96244.38;5063626;28;20039;-82
2021/01/29 14:00:16;;;;;;;21.00;10.60;;;;;;;16.96;18.92;96240.88;5061828;28;20032;-81
2021/01/29 14:02:51;;;;;;;17.02;9.90;;;;;;;18.00;18.65;96237.88;5057884;28;20037;-81
2021/01/29 14:05:24;;;;;;;21.73;10.57;;;;;;;17.81;18.36;96236.81;5047013;28;20020;-80
2021/01/29 14:07:53;;;;;;;17.23;9.23;;;;;;;17.01;19.27;96234.03;5063644;28;20365;-80
2021/01/29 14:10:23;;;;;;;21.42;11.10;;;;;;;17.72;18.86;96235.88;5061947;28;20059;-80
2021/01/29 14:13:13;;;;;;;16.45;8.68;;;;;;;18.10;17.36;96234.06;5059301;28;20032;-80
2021/01/29 14:16:01;;;;;;;16.83;8.80;;;;;;;18.11;17.64;96224.50;5060378;28;20522;-80
2021/01/29 14:18:51;;;;;;;16.67;9.20;;;;;;;18.56;17.01;96219.66;5061398;28;20487;-80
2021/01/29 14:21:38;;;;;;;17.30;8.63;;;;;;;19.82;16.57;96214.03;5081748;28;20045;-80
2021/01/29 14:24:25;;;;;;;16.05;8.18;;;;;;;20.21;16.43;96214.69;5065195;28;20510;-81
2021/01/29 14:27:23;;;;;;;17.35;8.50;;;;;;;19.26;17.01;96215.91;5063037;28;20111;-80
2021/01/29 14:30:06;;;;;;;17.48;7.88;;;;;;;19.69;16.17;96210.53;5062988;28;20051;-82
2021/01/29 14:32:45;;;;;;;20.48;9.95;;;;;;;18.98;16.63;96198.13;5058039;28;20091;-82
2021/01/29 14:35:39;;;;;;;17.40;8.43;;;;;;;20.24;15.71;96199.84;5073181;28;20039;-82
2021/01/29 14:38:19;;;;;;;18.27;9.60;;;;;;;20.34;15.60;96202.28;5070504;28;20492;-81
2021/01/29 14:41:03;;;;;;;17.63;9.25;;;;;;;20.03;16.01;96201.38;5065584;28;20044;-81
2021/01/29 14:44:01;;;;;;;19.35;10.15;;;;;;;19.98;15.99;96196.38;5073520;28;20495;-81
2021/01/29 14:46:39;;;;;;;17.08;8.32;;;;;;;20.15;15.80;96183.03;5070071;28;20052;-81
2021/01/29 14:49:23;;;;;;;18.85;9.32;;;;;;;19.04;16.10;96181.66;5065118;28;20036;-81
2021/01/29 14:52:01;;;;;;;15.82;6.70;;;;;;;19.81;16.46;96176.28;5070620;28;20037;-82
2021/01/29 14:54:34;;;;;;;16.95;7.75;;;;;;;20.71;15.87;96172.59;5072688;28;20060;-82
2021/01/29 14:57:16;;;;;;;15.55;7.43;;;;;;;21.10;15.13;96173.84;5075746;28;20036;-82
2021/01/29 14:59:50;;;;;;;18.63;9.40;;;;;;;19.21;16.04;96178.28;5064749;28;20399;-82
2021/01/29 15:02:35;;;;;;;28.02;11.32;;;;;;;16.76;18.28;96181.94;5077767;28;20052;-82
2021/01/29 15:05:04;;;;;;;22.17;10.27;;;;;;;17.52;18.57;96180.50;5088326;28;20060;-83
2021/01/29 15:07:36;;;;;;;16.95;8.82;;;;;;;18.82;17.02;96178.78;5071706;28;20032;-82
2021/01/29 15:10:21;;;;;;;17.58;9.43;;;;;;;20.07;15.85;96179.72;5067188;28;20040;-82
2021/01/29 15:12:50;;;;;;;14.00;6.72;;;;;;;21.57;14.42;96179.88;5064706;28;20119;-83
2021/01/29 15:15:22;;;;;;;19.92;9.65;;;;;;;21.33;14.60;96176.88;5071204;28;20044;-82
2021/01/29 15:17:59;;;;;;;22.15;9.88;;;;;;;21.42;14.34;96170.56;5062529;28;20025;-84
2021/01/29 15:20:48;;;;;;;19.30;9.38;;;;;;;21.18;14.15;96169.56;5069477;28;20035;-83
2021/01/29 15:23:34;;;;;;;17.92;8.32;;;;;;;21.91;14.35;96171.25;5065624;28;20422;-82
2021/01/29 15:26:03;;;;;;;29.08;13.00;;;;;;;19.70;15.66;96172.31;5067171;28;20043;-82
2021/01/29 15:28:29;;;;;;;29.92;12.23;;;;;;;17.70;17.70;96178.03;5070016;28;20425;-82
2021/01/29 15:31:01;;;;;;;20.23;10.95;;;;;;;18.28;17.76;96178.78;5058466;28;20051;-82
2021/01/29 15:33:35;;;;;;;25.95;12.15;;;;;;;19.44;16.64;96168.06;5079021;28;20082;-82
2021/01/29 15:36:41;;;;;;;29.45;13.88;;;;;;;19.82;15.76;96160.34;5079178;28;20045;-83
2021/01/29 15:39:22;;;;;;;25.40;11.45;;;;;;;19.54;15.90;96161.34;5063311;28;20071;-83
2021/01/29 15:41:54;;;;;;;31.08;12.50;;;;;;;18.43;17.30;96159.69;5065834;28;20028;-83
2021/01/29 15:44:26;;;;;;;27.38;13.57;;;;;;;16.81;18.60;96164.78;5071132;28;20136;-83
2021/01/29 15:47:20;;;;;;;22.88;10.73;;;;;;;15.14;20.08;96172.09;5070330;28;20044;-82
2021/01/29 15:49:47;;;;;;;23.40;11.13;;;;;;;15.21;21.20;96165.66;5057713;28;20025;-83
2021/01/29 15:52:18;;;;;;;23.88;11.07;;;;;;;15.47;21.06;96161.28;5069889;28;20471;-84
2021/01/29 15:54:50;;;;;;;;;;;;;;;15.94;20.16;96162.69;5071174;28;20064;-81
2021/01/29 15:57:33;;;;;;;24.38;9.65;;;;;;;15.68;20.82;96158.09;5061273;28;20367;-82
2021/01/29 16:00:02;;;;;;;18.45;8.35;;;;;;;15.53;21.16;96156.78;5059933;28;20033;-81
2021/01/29 16:02:53;;;;;;;20.65;10.70;;;;;;;15.03;21.38;96163.16;5062781;28;20114;-83
2021/01/29 16:05:44;;;;;;;22.60;11.50;;;;;;;15.37;21.46;96167.72;5064878;28;20099;-82
2021/01/29 16:08:26;;;;;;;20.48;10.30;;;;;;;14.40;22.81;96167.69;5062165;28;20479;-81
2021/01/29 16:11:11;;;;;;;23.88;10.27;;;;;;;14.82;22.78;96169.03;5070794;28;20043;-82
2021/01/29 16:13:38;;;;;;;19.48;9.80;;;;;;;16.19;21.97;96164.97;5062958;28;20041;-81
2021/01/29 16:16:15;;;;;;;20.38;9.70;;;;;;;15.47;22.56;96155.75;5062030;28;20044;-81
2021/01/29 16:18:52;;;;;;;24.17;11.20;;;;;;;15.02;23.30;96155.31;5068780;28;20462;-82
2021/01/29 16:21:37;;;;;;;28.67;12.27;;;;;;;14.49;24.18;96154.13;5068518;28;20565;-81
2021/01/29 16:24:09;;;;;;;19.05;9.50;;;;;;;15.38;23.41;96158.25;5066450;28;20100;-80
2021/01/29 16:26:39;;;;;;;24.80;12.15;;;;;;;15.17;23.88;96151.88;5062966;28;21486;-80
2021/01/29 16:29:12;;;;;;;25.05;11.48;;;;;;;14.25;24.88;96144.22;5069804;28;20434;-80
2021/01/29 16:31:47;;;;;;;22.00;10.40;;;;;;;14.69;24.76;96145.19;5053117;28;20033;-80
2021/01/29 16:34:16;;;;;;;27.08;12.82;;;;;;;13.98;25.93;96151.66;5067026;28;20028;-81
2021/01/29 16:36:49;;;;;;;22.30;10.88;;;;;;;16.92;22.62;96150.69;5085180;28;20400;-80
2021/01/29 16:39:25;;;;;;;24.60;10.30;;;;;;;17.69;21.25;96145.94;5067350;28;20135;-80
2021/01/29 16:41:53;;;;;;;28.80;14.80;;;;;;;15.62;23.36;96141.22;5067078;28;20036;-79
2021/01/29 16:44:21;;;;;;;22.98;11.15;;;;;;;16.13;23.24;96139.00;5069660;28;20130;-80
2021/01/29 16:46:49;;;;;;;28.73;14.27;;;;;;;14.53;24.95;96135.56;5063749;28;20036;-79
2021/01/29 16:49:22;;;;;;;26.70;12.32;;;;;;;15.40;24.19;96128.19;5063842;28;20020;-80
2021/01/29 16:51:54;;;;;;;26.25;12.40;;;;;;;14.86;25.18;96127.56;5062488;28;20496;-80
2021/01/29 16:54:30;;;;;;;30.83;12.68;;;;;;;14.89;24.75;96129.47;5059712;28;20037;-79
2021/01/29 16:57:04;;;;;;;25.42;13.20;;;;;;;16.11;23.36;96125.59;5062202;28;20040;-80
2021/01/29 16:59:31;;;;;;;29.95;13.18;;;;;;;14.61;25.68;96122.41;5061361;28;20062;-80
2021/01/29 17:02:07;;;;;;;22.38;11.48;;;;;;;16.89;22.83;96123.84;5065797;28;20045;-80
2021/01/29 17:04:49;;;;;;;26.73;12.98;;;;;;;15.21;24.15;96116.69;5073671;28;20036;-80
2021/01/29 17:07:31;;;;;;;25.63;12.35;;;;;;;14.98;24.91;96116.66;5059469;28;20029;-80
2021/01/29 17:10:10;;;;;;;26.40;12.73;;;;;;;14.86;25.28;96113.75;5065033;28;20044;-81
2021/01/29 17:12:37;;;;;;;30.00;14.52;;;;;;;14.98;24.69;96102.09;5064485;28;20025;-80
2021/01/29 17:15:09;;;;;;;24.50;11.57;;;;;;;15.52;24.46;96100.69;5059323;28;20044;-80
2021/01/29 17:17:36;;;;;;;29.80;13.65;;;;;;;14.45;25.86;96100.97;5085045;28;20072;-80
2021/01/29 17:20:05;;;;;;;28.15;12.18;;;;;;;15.50;24.78;96102.34;5070655;28;20337;-80
2021/01/29 17:22:35;;;;;;;29.42;14.13;;;;;;;15.83;23.99;96099.28;5063397;28;20537;-80
2021/01/29 17:25:20;;;;;;;23.80;11.50;;;;;;;16.73;22.96;96104.44;5066309;28;20034;-81
2021/01/29 17:27:53;;;;;;;27.67;13.38;;;;;;;14.38;25.96;96101.06;5067264;28;20033;-81
2021/01/29 17:30:26;;;;;;;29.10;12.65;;;;;;;15.78;24.14;96099.78;5062947;28;20039;-80
2021/01/29 17:32:54;;;;;;;27.27;12.07;;;;;;;17.42;22.02;96106.63;5064146;28;20051;-80
2021/01/29 17:35:28;;;;;;;27.10;13.23;;;;;;;17.44;22.01;96103.41;5067922;28;20032;-81
2021/01/29 17:38:16;;;;;;;30.33;13.95;;;;;;;16.54;23.04;96097.75;5061872;28;20440;-83
2021/01/29 17:40:56;;;;;;;23.52;10.60;;;;;;;18.07;21.48;96090.53;5060928;28;20055;-82